ePrivacy and GPDR Cookie Consent by Cookie Consent
EmailTwitter


Observations de surface / France / LFMK (07635)

Régions: Québec | Canada | États-Unis | Europe | France | UK | Ailleurs
Station
Affichage
Infos & localisation pour LFMK (07635) | Aide pour décoder les METARs

Observations prises le 2023-02-07 à 18H30 UTC à CARCASSONNE/SALV, FR (LFMK)

Etat du ciel: couvert.

Température: 7.0 Celsius

Point de rosée: 4.0 Celsius

Humidité relative: 81%

Facteur vent: 4.

Vents: Est à 19 km/h ou 10 noeuds.

Pression au niveau moyen de la mer: 102.90 kilopascals.

Visibilité horizontale: 6.21 milles terrestres ou 9.94 kilomètres.

Hauteur du plafond: 1250 mètres ( 4100 pieds ).

Observation METAR:

LFMK 071830Z AUTO 09010KT 070V130 9999 SCT033 OVC041 07/04 Q1029 NOSIG =